Time;durP1;ratioP1;P1;durP2;ratioP2;P2;SDS_P1;SDS_P2;PMS_P1;PMS_P2;Temp;Humidity;BMP_temperature;BMP_pressure;BME280_temperature;BME280_humidity;BME280_pressure;Samples;Min_cycle;Max_cycle;Signal;HPM_P1;HPM_P2
2022/12/04 00:02:21;;;;;;;35.58;14.60;;;;;;;7.49;100.00;99381.22;5032488;28;20162;-56
2022/12/04 00:04:47;;;;;;;32.75;14.57;;;;;;;7.45;100.00;99380.50;5032216;28;20558;-56
2022/12/04 00:07:13;;;;;;;32.88;15.45;;;;;;;7.46;100.00;99371.06;5031841;28;20200;-56
2022/12/04 00:09:38;;;;;;;32.17;15.25;;;;;;;7.59;100.00;99379.94;5031906;28;20236;-56
2022/12/04 00:12:04;;;;;;;33.20;14.40;;;;;;;7.66;100.00;99377.06;5031892;28;20281;-56
2022/12/04 00:14:29;;;;;;;32.53;15.43;;;;;;;7.69;100.00;99374.34;5031826;28;20189;-56
2022/12/04 00:16:54;;;;;;;33.17;15.55;;;;;;;7.79;100.00;99382.53;5032146;28;20281;-57
2022/12/04 00:19:20;;;;;;;38.42;15.70;;;;;;;7.77;100.00;99386.91;5014134;28;20177;-56
2022/12/04 00:21:45;;;;;;;48.58;16.33;;;;;;;7.82;100.00;99390.16;5031876;28;20192;-56
2022/12/04 00:24:11;;;;;;;38.00;14.70;;;;;;;7.77;100.00;99398.06;5031776;28;20185;-57
2022/12/04 00:26:37;;;;;;;32.78;14.55;;;;;;;7.85;100.00;99400.31;5031811;28;20174;-56
2022/12/04 00:29:02;;;;;;;31.10;14.25;;;;;;;7.87;100.00;99395.94;5031618;28;20205;-56
2022/12/04 00:31:29;;;;;;;29.00;13.40;;;;;;;7.82;100.00;99396.13;5031763;28;20174;-56
2022/12/04 00:33:55;;;;;;;25.25;13.40;;;;;;;7.83;100.00;99392.66;5033164;28;20530;-56
2022/12/04 00:36:22;;;;;;;27.80;13.45;;;;;;;7.70;100.00;99386.31;5035895;28;20180;-56
2022/12/04 00:38:48;;;;;;;34.33;14.88;;;;;;;7.65;100.00;99383.13;5035661;28;20170;-56
2022/12/04 00:41:16;;;;;;;30.10;13.55;;;;;;;7.77;100.00;99390.34;5035587;28;20170;-56
2022/12/04 00:43:42;;;;;;;28.58;13.10;;;;;;;7.69;100.00;99382.06;5035557;28;20182;-56
2022/12/04 00:46:08;;;;;;;27.27;12.77;;;;;;;7.82;100.00;99385.81;5035802;28;20170;-56
2022/12/04 00:48:34;;;;;;;21.73;11.50;;;;;;;7.78;100.00;99384.28;5035325;28;20202;-56
2022/12/04 00:51:02;;;;;;;22.52;11.98;;;;;;;7.75;100.00;99381.81;5035946;28;20189;-57
2022/12/04 00:53:28;;;;;;;20.73;9.82;;;;;;;7.87;100.00;99383.88;5035395;28;20281;-57
2022/12/04 00:55:53;;;;;;;20.65;11.40;;;;;;;7.89;100.00;99382.09;5035339;28;20175;-56
2022/12/04 00:58:18;;;;;;;27.20;12.52;;;;;;;7.84;100.00;99385.75;5035272;28;20186;-56
2022/12/04 01:00:44;;;;;;;21.67;11.20;;;;;;;7.74;100.00;99377.56;5035224;28;20179;-56
2022/12/04 01:03:09;;;;;;;21.27;11.25;;;;;;;7.55;100.00;99368.09;5035454;28;20312;-56
2022/12/04 01:05:44;;;;;;;20.13;10.30;;;;;;;7.51;100.00;99374.28;5035422;28;20261;-56
2022/12/04 01:08:11;;;;;;;24.60;11.35;;;;;;;7.54;100.00;99369.84;5035561;28;20185;-56
2022/12/04 01:10:38;;;;;;;26.15;11.90;;;;;;;7.44;100.00;99371.13;5035278;28;20206;-56
2022/12/04 01:13:04;;;;;;;28.70;12.32;;;;;;;7.40;100.00;99361.84;5034950;28;20633;-56
2022/12/04 01:15:30;;;;;;;29.52;13.32;;;;;;;7.38;100.00;99362.78;5034993;28;20281;-56
2022/12/04 01:17:55;;;;;;;27.77;11.93;;;;;;;7.27;100.00;99358.09;5035476;28;20175;-56
2022/12/04 01:20:21;;;;;;;24.73;12.30;;;;;;;7.34;100.00;99359.50;5034910;28;20224;-56
2022/12/04 01:22:46;;;;;;;24.60;11.32;;;;;;;7.43;100.00;99369.44;5035086;28;20229;-56
2022/12/04 01:25:11;;;;;;;20.63;11.32;;;;;;;7.43;100.00;99366.88;5034734;28;20672;-56
2022/12/04 01:27:37;;;;;;;25.95;10.77;;;;;;;7.35;100.00;99348.31;5034837;28;20209;-56
2022/12/04 01:30:03;;;;;;;23.58;12.27;;;;;;;7.40;100.00;99359.25;5034608;28;20198;-56
2022/12/04 01:32:30;;;;;;;22.42;11.18;;;;;;;7.51;100.00;99367.38;5034871;28;20239;-56
2022/12/04 01:34:55;;;;;;;9.65;6.03;;;;;;;7.60;100.00;99374.75;5034583;28;20636;-56
2022/12/04 01:37:20;;;;;;;6.25;4.57;;;;;;;7.50;100.00;99376.00;5034853;28;20174;-56
2022/12/04 01:39:46;;;;;;;6.07;4.25;;;;;;;7.45;100.00;99372.78;5034566;28;20190;-56
2022/12/04 01:42:14;;;;;;;4.93;3.70;;;;;;;7.34;100.00;99377.53;5034524;28;20179;-56
2022/12/04 01:45:16;;;;;;;3.92;3.55;;;;;;;7.36;100.00;99373.19;5034136;28;20208;-56
2022/12/04 01:47:42;;;;;;;4.78;3.05;;;;;;;7.45;100.00;99377.13;5034300;28;20202;-56
2022/12/04 01:50:08;;;;;;;3.53;3.22;;;;;;;7.41;100.00;99378.94;5034404;28;20261;-56
2022/12/04 01:52:33;;;;;;;3.35;3.05;;;;;;;7.49;100.00;99376.91;5034347;28;20170;-56
2022/12/04 01:55:00;;;;;;;3.25;2.95;;;;;;;7.54;100.00;99372.44;5034291;28;20182;-56
2022/12/04 01:57:30;;;;;;;4.75;3.83;;;;;;;7.56;100.00;99370.63;5034235;28;20261;-56
2022/12/04 01:59:57;;;;;;;4.68;3.30;;;;;;;7.52;100.00;99371.63;5034454;28;20217;-56
2022/12/04 02:02:33;;;;;;;5.47;3.85;;;;;;;7.58;100.00;99380.88;5034416;28;20178;-56
2022/12/04 02:05:00;;;;;;;4.07;3.13;;;;;;;7.52;100.00;99371.63;5034968;28;20173;-56
2022/12/04 02:07:27;;;;;;;4.90;3.17;;;;;;;7.48;100.00;99370.09;5033991;28;20583;-56
2022/12/04 02:09:54;;;;;;;11.00;6.60;;;;;;;7.61;100.00;99373.00;5033970;28;20552;-56
2022/12/04 02:12:20;;;;;;;7.18;5.10;;;;;;;7.54;100.00;99372.44;5034166;28;20186;-56
2022/12/04 02:15:01;;;;;;;14.75;6.93;;;;;;;7.42;100.00;99364.34;5034450;28;20174;-56
2022/12/04 02:17:44;;;;;;;26.10;12.40;;;;;;;7.22;100.00;99365.16;5034161;28;20155;-56
2022/12/04 02:20:31;;;;;;;30.30;13.80;;;;;;;7.29;100.00;99369.16;5033781;28;20167;-56
2022/12/04 02:23:24;;;;;;;25.48;12.00;;;;;;;7.61;100.00;99363.53;5034254;28;20219;-56
2022/12/04 02:25:58;;;;;;;36.60;14.32;;;;;;;7.72;100.00;99363.94;5033979;28;20178;-56
2022/12/04 02:28:35;;;;;;;31.02;13.73;;;;;;;7.79;100.00;99355.03;5033328;28;20225;-56
2022/12/04 02:31:03;;;;;;;31.45;13.70;;;;;;;7.83;100.00;99361.75;5033904;28;20175;-56
2022/12/04 02:33:40;;;;;;;29.15;14.57;;;;;;;7.69;100.00;99358.06;5033533;28;20198;-56
2022/12/04 02:36:14;;;;;;;34.33;15.35;;;;;;;7.73;100.00;99357.03;5033600;28;20154;-56
2022/12/04 02:38:58;;;;;;;39.17;15.77;;;;;;;7.72;100.00;99369.09;5033769;28;20171;-56
2022/12/04 02:41:47;;;;;;;37.08;14.23;;;;;;;7.77;100.00;99372.31;5033668;28;20163;-56
2022/12/04 02:44:33;;;;;;;40.13;16.00;;;;;;;7.88;100.00;99359.81;5033234;28;20559;-56
2022/12/04 02:47:03;;;;;;;37.78;15.27;;;;;;;7.98;100.00;99368.81;5033724;28;20574;-56
2022/12/04 02:49:41;;;;;;;39.78;14.75;;;;;;;8.06;100.00;99369.34;5033225;28;20651;-56
2022/12/04 02:52:10;;;;;;;36.30;14.30;;;;;;;8.13;100.00;99370.72;5033506;28;20165;-56
2022/12/04 02:54:41;;;;;;;37.83;15.70;;;;;;;8.15;100.00;99361.19;5033696;28;20181;-56
2022/12/04 02:57:10;;;;;;;34.35;14.32;;;;;;;8.10;100.00;99370.84;5032211;28;20169;-56
2022/12/04 02:59:40;;;;;;;33.92;13.98;;;;;;;7.99;100.00;99369.66;5033276;28;20332;-56
2022/12/04 03:02:18;;;;;;;30.58;13.25;;;;;;;7.95;100.00;99371.53;5033256;28;20175;-56
2022/12/04 03:04:46;;;;;;;31.98;14.65;;;;;;;7.80;100.00;99376.50;5033238;28;20167;-56
2022/12/04 03:07:29;;;;;;;30.02;15.20;;;;;;;7.76;100.00;99365.47;5033344;28;20182;-56
2022/12/04 03:09:59;;;;;;;32.55;15.25;;;;;;;7.74;100.00;99367.28;5033154;28;20169;-56
2022/12/04 03:12:29;;;;;;;32.53;14.48;;;;;;;7.64;100.00;99371.13;5033087;28;20165;-56
2022/12/04 03:15:00;;;;;;;31.65;14.82;;;;;;;7.57;100.00;99361.97;5033285;28;20170;-56
2022/12/04 03:17:36;;;;;;;30.55;14.82;;;;;;;7.54;100.00;99351.81;5033026;28;20565;-56
2022/12/04 03:20:09;;;;;;;27.40;13.85;;;;;;;7.64;100.00;99363.41;5032941;28;20181;-56
2022/12/04 03:22:39;;;;;;;27.00;14.20;;;;;;;7.61;100.00;99366.13;5032837;28;20171;-56
2022/12/04 03:25:06;;;;;;;31.20;14.98;;;;;;;7.63;100.00;99363.47;5033078;28;20182;-56
2022/12/04 03:27:47;;;;;;;34.40;15.27;;;;;;;7.63;100.00;99369.47;5032399;28;20202;-56
2022/12/04 03:30:19;;;;;;;27.05;14.38;;;;;;;7.61;100.00;99370.41;5032481;28;20236;-56
2022/12/04 03:33:02;;;;;;;28.33;13.35;;;;;;;7.55;100.00;99373.25;5032789;28;20162;-56
2022/12/04 03:35:48;;;;;;;31.08;15.52;;;;;;;7.55;100.00;99376.66;5032681;28;20538;-56
2022/12/04 03:38:32;;;;;;;29.77;14.55;;;;;;;7.57;100.00;99374.84;5032648;28;20167;-56
2022/12/04 03:41:11;;;;;;;27.75;13.95;;;;;;;7.60;100.00;99374.75;5032656;28;20245;-56
2022/12/04 03:43:57;;;;;;;24.95;13.18;;;;;;;7.72;100.00;99379.38;5032916;28;20159;-56
2022/12/04 03:46:51;;;;;;;25.95;12.43;;;;;;;7.66;100.00;99377.06;5032555;28;20636;-56
2022/12/04 03:49:16;;;;;;;25.50;12.68;;;;;;;7.76;100.00;99375.75;5022686;28;20770;-56
2022/12/04 03:51:56;;;;;;;25.58;13.30;;;;;;;7.59;100.00;99373.09;5032165;28;20256;-56
2022/12/04 03:54:29;;;;;;;27.25;13.70;;;;;;;7.65;100.00;99374.56;5032153;28;20190;-56
2022/12/04 03:57:02;;;;;;;27.45;12.80;;;;;;;7.52;100.00;99376.78;5032345;28;20224;-57
2022/12/04 03:59:34;;;;;;;29.02;14.10;;;;;;;7.49;100.00;99371.78;5032354;28;20170;-56
2022/12/04 04:02:02;;;;;;;27.75;14.70;;;;;;;7.55;100.00;99374.09;5032007;28;20175;-56
2022/12/04 04:04:33;;;;;;;30.33;14.40;;;;;;;7.41;100.00;99366.06;5031986;28;20550;-56
2022/12/04 04:07:17;;;;;;;24.75;12.43;;;;;;;7.48;100.00;99375.25;5031856;28;20775;-56
2022/12/04 04:09:46;;;;;;;28.50;13.32;;;;;;;7.37;100.00;99369.69;5032000;28;20182;-56
2022/12/04 04:12:19;;;;;;;26.52;13.73;;;;;;;7.33;100.00;99364.72;5032030;28;20185;-56
2022/12/04 04:25:58;;;;;;;30.95;15.02;;;;;;;7.42;100.00;99378.06;5032675;28;20220;-56
2022/12/04 04:28:38;;;;;;;35.83;15.63;;;;;;;7.33;100.00;99375.00;5032055;28;20230;-56
2022/12/04 04:31:23;;;;;;;35.83;14.95;;;;;;;7.37;100.00;99374.00;5031985;28;20603;-56
2022/12/04 04:34:16;;;;;;;36.00;14.82;;;;;;;7.36;100.00;99380.06;5032292;28;20259;-56
2022/12/04 04:36:54;;;;;;;38.40;15.75;;;;;;;7.44;100.00;99386.56;5031965;28;20183;-56
2022/12/04 04:39:22;;;;;;;55.03;15.40;;;;;;;7.43;100.00;99379.75;5031645;28;20185;-56
2022/12/04 04:41:58;;;;;;;36.97;14.93;;;;;;;7.36;100.00;99380.91;5031689;28;20223;-56
2022/12/04 04:44:31;;;;;;;39.40;16.42;;;;;;;7.35;100.00;99368.91;5032217;28;20224;-56
2022/12/04 04:47:02;;;;;;;38.53;16.48;;;;;;;7.31;100.00;99375.09;5031806;28;20159;-56
2022/12/04 04:49:31;;;;;;;35.42;16.70;;;;;;;7.06;100.00;99379.50;5031901;28;20591;-56
2022/12/04 04:51:57;;;;;;;40.10;17.67;;;;;;;7.09;100.00;99379.41;5031578;28;20193;-56
2022/12/04 04:54:24;;;;;;;36.55;17.17;;;;;;;7.08;100.00;99387.19;5031562;28;20225;-56
2022/12/04 04:56:50;;;;;;;34.35;15.68;;;;;;;7.22;100.00;99392.66;5031811;28;20212;-56
2022/12/04 04:59:15;;;;;;;33.72;15.50;;;;;;;7.28;100.00;99395.78;5031440;28;20171;-56
2022/12/04 05:01:43;;;;;;;31.52;15.07;;;;;;;7.20;100.00;99391.84;5032011;28;20199;-56
2022/12/04 05:04:09;;;;;;;39.78;16.52;;;;;;;7.19;100.00;99393.59;5031484;28;20174;-56
2022/12/04 05:06:35;;;;;;;34.00;16.42;;;;;;;7.28;100.00;99398.38;5031988;28;20181;-56
2022/12/04 05:09:01;;;;;;;34.83;15.77;;;;;;;7.18;100.00;99399.63;5031366;28;20209;-56
2022/12/04 05:11:26;;;;;;;36.67;15.80;;;;;;;7.20;100.00;99397.00;5031374;28;20179;-56
2022/12/04 05:13:51;;;;;;;35.00;16.17;;;;;;;7.27;100.00;99403.56;5031394;28;20630;-56
2022/12/04 05:16:17;;;;;;;32.50;17.02;;;;;;;7.17;100.00;99392.81;5031357;28;20174;-56
2022/12/04 05:19:52;;;;;;;36.75;17.15;;;;;;;7.07;100.00;99383.78;5031341;28;20206;-56
2022/12/04 05:21:29;;;;;;;33.42;15.90;;;;;;;7.30;100.00;99404.31;5034736;28;20174;-56
2022/12/04 05:23:55;;;;;;;39.63;18.23;;;;;;;7.27;100.00;99412.13;5035140;28;20236;-56
2022/12/04 05:26:20;;;;;;;42.72;18.45;;;;;;;7.28;100.00;99402.69;5034850;28;20178;-56
2022/12/04 05:28:45;;;;;;;35.42;17.10;;;;;;;7.31;100.00;99408.56;5034468;28;20222;-56
2022/12/04 05:31:11;;;;;;;37.10;15.98;;;;;;;7.33;100.00;99406.75;5034731;28;20175;-56
2022/12/04 05:33:36;;;;;;;33.72;15.68;;;;;;;7.33;100.00;99408.47;5034968;28;20618;-56
2022/12/04 05:36:08;;;;;;;33.97;17.98;;;;;;;7.45;100.00;99413.97;5034853;28;20176;-56
2022/12/04 05:38:34;;;;;;;34.25;17.25;;;;;;;7.39;100.00;99411.66;5034867;28;20254;-56
2022/12/04 05:41:02;;;;;;;35.15;17.80;;;;;;;7.39;100.00;99424.53;5034458;28;20665;-56
2022/12/04 05:43:28;;;;;;;42.65;19.15;;;;;;;7.37;100.00;99431.47;5016773;28;20616;-56
2022/12/04 05:45:54;;;;;;;41.38;17.60;;;;;;;7.46;100.00;99427.72;5034493;28;20171;-56
2022/12/04 05:48:19;;;;;;;35.53;16.20;;;;;;;7.54;100.00;99426.50;5034286;28;20246;-56
2022/12/04 05:50:44;;;;;;;36.05;17.50;;;;;;;7.49;100.00;99425.84;5034381;28;20312;-56
2022/12/04 05:53:10;;;;;;;44.95;18.48;;;;;;;7.54;100.00;99416.22;5035137;28;20552;-56
2022/12/04 05:55:36;;;;;;;37.47;17.02;;;;;;;7.53;100.00;99423.97;5034273;28;20185;-56
2022/12/04 05:58:01;;;;;;;34.42;17.35;;;;;;;7.53;100.00;99419.69;5034239;28;20174;-56
2022/12/04 06:00:27;;;;;;;34.95;15.80;;;;;;;7.47;100.00;99425.06;5034172;28;20174;-56
2022/12/04 06:02:52;;;;;;;34.50;16.23;;;;;;;7.41;100.00;99425.28;5034234;28;20183;-56
2022/12/04 06:05:18;;;;;;;33.40;17.52;;;;;;;7.44;100.00;99425.19;5034649;28;20194;-56
2022/12/04 06:07:43;;;;;;;45.13;18.42;;;;;;;7.41;100.00;99421.91;5033989;28;20288;-56
2022/12/04 06:10:09;;;;;;;38.97;18.95;;;;;;;7.41;100.00;99425.28;5034275;28;20355;-57
2022/12/04 06:12:34;;;;;;;36.17;17.05;;;;;;;7.38;100.00;99430.59;5033921;28;20177;-56
2022/12/04 06:14:59;;;;;;;33.70;18.00;;;;;;;7.43;100.00;99436.38;5033870;28;20236;-56
2022/12/04 06:17:25;;;;;;;40.65;16.08;;;;;;;7.37;100.00;99436.63;5034099;28;20175;-56
2022/12/04 06:19:52;;;;;;;41.45;17.75;;;;;;;7.39;100.00;99436.59;5033832;28;20174;-56
2022/12/04 06:22:17;;;;;;;50.20;19.98;;;;;;;7.40;100.00;99441.66;5033787;28;20257;-56
2022/12/04 06:24:43;;;;;;;39.42;17.92;;;;;;;7.50;100.00;99445.53;5033667;28;20661;-56
2022/12/04 06:27:08;;;;;;;47.13;19.63;;;;;;;7.49;100.00;99443.03;5033868;28;20254;-56
2022/12/04 06:29:34;;;;;;;84.85;30.65;;;;;;;7.45;100.00;99444.88;5033395;28;20233;-56
2022/12/04 06:31:59;;;;;;;61.58;22.80;;;;;;;7.50;100.00;99442.97;5033485;28;20565;-56
2022/12/04 06:34:25;;;;;;;57.90;21.08;;;;;;;7.41;100.00;99453.63;5033766;28;20178;-56
2022/12/04 06:36:50;;;;;;;53.42;20.45;;;;;;;7.54;100.00;99456.56;5033475;28;20170;-56
2022/12/04 06:39:15;;;;;;;51.13;20.50;;;;;;;7.53;100.00;99454.88;5033461;28;20174;-56
2022/12/04 06:41:41;;;;;;;57.13;20.75;;;;;;;7.48;100.00;99456.78;5033408;28;20170;-56
2022/12/04 06:44:06;;;;;;;55.83;19.98;;;;;;;7.61;100.00;99456.25;5033384;28;20174;-56
2022/12/04 06:46:34;;;;;;;57.30;21.63;;;;;;;7.53;100.00;99460.88;5033219;28;20182;-56
2022/12/04 06:49:01;;;;;;;64.57;23.17;;;;;;;7.52;100.00;99456.59;5033442;28;20617;-56
2022/12/04 06:51:44;;;;;;;65.15;20.98;;;;;;;7.54;100.00;99452.25;5033174;28;20181;-56
2022/12/04 06:54:12;;;;;;;63.13;22.27;;;;;;;7.55;100.00;99456.50;5033743;28;20645;-56
2022/12/04 06:56:37;;;;;;;54.92;20.25;;;;;;;7.42;100.00;99447.59;5033390;28;20236;-56
2022/12/04 06:59:03;;;;;;;55.97;20.30;;;;;;;7.47;100.00;99455.94;5033356;28;20166;-56
2022/12/04 07:01:31;;;;;;;50.10;18.77;;;;;;;7.50;100.00;99450.69;5033204;28;20178;-57
2022/12/04 07:03:57;;;;;;;50.13;17.77;;;;;;;7.45;100.00;99451.78;5033202;28;20194;-56
2022/12/04 07:06:41;;;;;;;55.08;20.00;;;;;;;7.54;100.00;99457.41;5032926;28;20201;-56
2022/12/04 07:09:10;;;;;;;49.33;21.17;;;;;;;7.51;100.00;99456.69;5033102;28;20192;-57
2022/12/04 07:11:36;;;;;;;66.65;22.95;;;;;;;7.64;100.00;99450.97;5032839;28;20185;-56
2022/12/04 07:14:02;;;;;;;70.65;25.45;;;;;;;7.55;100.00;99461.66;5033084;28;20193;-56
2022/12/04 07:16:28;;;;;;;55.00;19.50;;;;;;;7.54;100.00;99456.56;5032771;28;20186;-56
2022/12/04 07:18:56;;;;;;;58.83;23.05;;;;;;;7.62;100.00;99469.94;5032731;28;20178;-56
2022/12/04 07:21:24;;;;;;;47.53;21.00;;;;;;;7.52;100.00;99468.66;5032787;28;20209;-56
2022/12/04 07:23:51;;;;;;;57.97;22.17;;;;;;;7.40;100.00;99466.56;5032434;28;20198;-56
2022/12/04 07:26:18;;;;;;;66.05;24.90;;;;;;;7.54;100.00;99472.84;5032539;28;20217;-55
2022/12/04 07:28:46;;;;;;;50.08;21.23;;;;;;;7.52;100.00;99473.81;5032225;28;20233;-56
2022/12/04 07:31:22;;;;;;;64.50;23.70;;;;;;;7.37;100.00;99470.09;5032589;28;20181;-56
2022/12/04 07:33:48;;;;;;;60.55;22.27;;;;;;;7.32;100.00;99461.72;5032800;28;20189;-56
2022/12/04 07:36:18;;;;;;;58.30;21.88;;;;;;;7.31;100.00;99465.19;5032077;28;20651;-57
2022/12/04 07:38:44;;;;;;;62.20;23.30;;;;;;;7.33;100.00;99462.53;5032568;28;20182;-57
2022/12/04 07:41:10;;;;;;;62.95;22.55;;;;;;;7.36;100.00;99472.72;5032301;28;20179;-56
2022/12/04 07:43:37;;;;;;;52.55;21.13;;;;;;;7.25;100.00;99465.44;5031725;28;20186;-56
2022/12/04 07:46:06;;;;;;;56.95;20.45;;;;;;;7.30;100.00;99484.13;5014413;28;20662;-56
2022/12/04 07:48:31;;;;;;;53.28;20.38;;;;;;;7.18;100.00;99427.94;5031993;28;20213;-56
2022/12/04 07:51:29;;;;;;;55.47;21.63;;;;;;;7.55;100.00;99471.97;5032200;28;20174;-56
2022/12/04 07:53:58;;;;;;;57.88;22.02;;;;;;;7.53;100.00;99476.34;4988546;28;20721;-56
2022/12/04 07:56:24;;;;;;;51.78;21.98;;;;;;;7.52;100.00;99476.38;5032360;28;20604;-56
2022/12/04 07:58:49;;;;;;;59.22;21.10;;;;;;;7.55;100.00;99473.69;5032016;28;20174;-56
2022/12/04 08:01:18;;;;;;;54.70;22.20;;;;;;;7.57;100.00;99475.28;5032006;28;20185;-56
2022/12/04 08:03:45;;;;;;;62.40;22.02;;;;;;;7.38;100.00;99461.47;5031983;28;20210;-56
2022/12/04 08:06:11;;;;;;;66.22;25.85;;;;;;;7.45;100.00;99468.06;5032265;28;20179;-56
2022/12/04 08:08:36;;;;;;;66.95;21.90;;;;;;;7.26;100.00;99461.94;5031897;28;20198;-56
2022/12/04 08:11:10;;;;;;;111.53;46.55;;;;;;;7.36;100.00;99465.84;5032170;28;20182;-56
2022/12/04 08:13:36;;;;;;;69.47;30.67;;;;;;;7.38;100.00;99464.06;5031873;28;20635;-56
2022/12/04 08:16:06;;;;;;;54.00;20.75;;;;;;;7.56;100.00;99471.06;5031841;28;20186;-57
2022/12/04 08:18:32;;;;;;;52.10;20.00;;;;;;;7.60;100.00;99472.63;5032164;28;20185;-57
2022/12/04 08:21:06;;;;;;;46.13;19.25;;;;;;;7.63;100.00;99475.06;5031859;28;20175;-56
2022/12/04 08:23:32;;;;;;;55.15;22.33;;;;;;;7.67;100.00;99475.75;5032070;28;20166;-56
2022/12/04 08:25:59;;;;;;;47.97;20.38;;;;;;;7.66;100.00;99474.94;5031652;28;20667;-56
2022/12/04 08:28:25;;;;;;;45.90;19.67;;;;;;;7.77;100.00;99475.34;5031608;28;20309;-56
2022/12/04 08:30:50;;;;;;;52.92;24.58;;;;;;;7.69;100.00;99474.00;5031745;28;20257;-56
2022/12/04 08:33:15;;;;;;;57.63;27.00;;;;;;;7.47;100.00;99470.56;5031985;28;20205;-56
2022/12/04 08:35:41;;;;;;;53.72;25.35;;;;;;;7.51;100.00;99472.97;5031927;28;20175;-56
2022/12/04 08:38:07;;;;;;;52.25;20.70;;;;;;;7.46;100.00;99468.91;5026314;28;20670;-57
2022/12/04 08:40:32;;;;;;;43.97;19.98;;;;;;;7.34;100.00;99470.22;5031639;28;20670;-56
2022/12/04 08:42:58;;;;;;;46.22;20.27;;;;;;;7.42;100.00;99467.34;5031575;28;20179;-57
2022/12/04 08:45:23;;;;;;;57.75;24.92;;;;;;;7.31;100.00;99449.75;5031609;28;20185;-57
2022/12/04 08:47:48;;;;;;;115.95;57.10;;;;;;;7.36;100.00;99459.84;5031473;28;20199;-57
2022/12/04 08:50:14;;;;;;;51.78;23.90;;;;;;;7.45;100.00;99468.06;5031848;28;20178;-55
2022/12/04 08:52:39;;;;;;;51.88;23.75;;;;;;;7.41;100.00;99471.63;5031576;28;20182;-56
2022/12/04 08:55:06;;;;;;;56.63;23.05;;;;;;;7.47;100.00;99461.09;5032536;28;20174;-55
2022/12/04 08:57:31;;;;;;;47.72;21.27;;;;;;;7.49;100.00;99459.31;5035605;28;20174;-56
2022/12/04 08:59:56;;;;;;;54.95;25.17;;;;;;;7.46;100.00;99464.56;5017457;28;20563;-55
2022/12/04 09:02:22;;;;;;;55.88;24.70;;;;;;;7.47;100.00;99473.97;5034931;28;20197;-56
2022/12/04 09:04:47;;;;;;;57.90;26.23;;;;;;;7.61;100.00;99468.28;5035130;28;20569;-55
2022/12/04 09:07:13;;;;;;;47.70;22.35;;;;;;;7.67;100.00;99463.75;5035377;28;20177;-55
2022/12/04 09:09:38;;;;;;;83.65;35.47;;;;;;;7.51;100.00;99462.66;5035342;28;20170;-55
2022/12/04 09:12:03;;;;;;;68.68;35.13;;;;;;;7.54;100.00;99459.97;5035291;28;20210;-55
2022/12/04 09:14:29;;;;;;;83.53;38.75;;;;;;;7.55;100.00;99458.22;5017307;28;20792;-55
2022/12/04 09:16:54;;;;;;;80.72;38.42;;;;;;;7.55;100.00;99448.78;5035259;28;20205;-55
2022/12/04 09:19:20;;;;;;;60.35;27.67;;;;;;;7.39;100.00;99452.84;5035203;28;20182;-56
2022/12/04 09:21:46;;;;;;;53.35;26.58;;;;;;;7.35;100.00;99450.47;5035040;28;20237;-57
2022/12/04 09:24:12;;;;;;;51.55;24.20;;;;;;;7.31;100.00;99449.75;5034820;28;20610;-55
2022/12/04 09:26:38;;;;;;;49.38;24.08;;;;;;;7.26;100.00;99440.50;5034976;28;20272;-55
2022/12/04 09:29:04;;;;;;;60.58;30.85;;;;;;;7.18;100.00;99430.50;5034250;28;20234;-55
2022/12/04 09:31:31;;;;;;;52.03;26.50;;;;;;;7.27;100.00;99434.47;5034694;28;20189;-55
2022/12/04 09:33:58;;;;;;;69.07;31.77;;;;;;;7.24;100.00;99435.44;5034598;28;20269;-55
2022/12/04 09:36:23;;;;;;;56.25;26.35;;;;;;;7.20;100.00;99431.31;5035145;28;20174;-55
2022/12/04 09:38:56;;;;;;;46.55;21.33;;;;;;;7.24;100.00;99425.16;5034561;28;20712;-55
2022/12/04 09:41:50;;;;;;;60.90;26.88;;;;;;;7.24;100.00;99403.72;5034749;28;20655;-55
2022/12/04 09:44:33;;;;;;;80.90;36.67;;;;;;;7.31;100.00;99420.56;5035189;28;20553;-55
2022/12/04 09:47:03;;;;;;;56.20;25.65;;;;;;;7.41;100.00;99415.00;5016924;28;20190;-56
2022/12/04 09:49:36;;;;;;;55.38;26.13;;;;;;;7.43;100.00;99418.38;5033836;28;20280;-55
2022/12/04 09:52:08;;;;;;;98.78;41.60;;;;;;;7.41;100.00;99415.00;5034903;28;20628;-55
2022/12/04 09:54:39;;;;;;;99.55;43.65;;;;;;;7.44;100.00;99411.47;5034278;28;20589;-55
2022/12/04 09:57:15;;;;;;;66.93;30.92;;;;;;;7.36;100.00;99408.38;5034558;28;20182;-55
2022/12/04 09:59:41;;;;;;;62.38;30.77;;;;;;;7.44;100.00;99409.75;5034452;28;20208;-55
2022/12/04 10:02:28;;;;;;;62.75;31.00;;;;;;;7.34;100.00;99417.91;5034031;28;20257;-55
2022/12/04 10:04:54;;;;;;;58.30;27.02;;;;;;;7.31;100.00;99411.13;5033837;28;20646;-56
2022/12/04 10:07:41;;;;;;;44.95;23.38;;;;;;;7.44;100.00;99408.88;5033610;28;20190;-55
2022/12/04 10:10:26;;;;;;;44.42;24.02;;;;;;;7.26;100.00;99407.91;5034337;28;20620;-55
2022/12/04 10:13:04;;;;;;;36.22;20.23;;;;;;;7.24;100.00;99409.72;5033689;28;20182;-55
2022/12/04 10:15:44;;;;;;;42.92;23.52;;;;;;;7.30;100.00;99408.63;5033873;28;20177;-55
2022/12/04 10:18:32;;;;;;;45.55;23.85;;;;;;;7.22;100.00;99402.94;5034492;28;20616;-55
2022/12/04 10:21:28;;;;;;;36.75;20.98;;;;;;;7.28;100.00;99400.94;4996599;28;20190;-55
2022/12/04 10:24:28;;;;;;;45.58;24.75;;;;;;;7.36;100.00;99395.50;5034022;28;20647;-56
2022/12/04 10:26:58;;;;;;;36.88;19.42;;;;;;;7.35;100.00;99389.50;5034220;28;20725;-55
2022/12/04 10:29:29;;;;;;;42.08;22.38;;;;;;;7.48;100.00;99397.56;5033401;28;20663;-55
2022/12/04 10:32:05;;;;;;;34.33;18.98;;;;;;;7.43;100.00;99399.50;5033918;28;20181;-55
2022/12/04 10:34:30;;;;;;;29.02;18.10;;;;;;;7.37;100.00;99395.44;5033876;28;20170;-56
2022/12/04 10:37:12;;;;;;;33.35;19.75;;;;;;;7.30;100.00;99396.59;5033760;28;20181;-56
2022/12/04 10:39:43;;;;;;;27.55;18.00;;;;;;;7.34;100.00;99392.97;5033789;28;20166;-55
2022/12/04 10:42:30;;;;;;;21.85;13.95;;;;;;;7.28;100.00;99393.22;5033421;28;20659;-55
2022/12/04 10:44:56;;;;;;;37.22;21.27;;;;;;;7.36;100.00;99393.78;5033921;28;20170;-55
2022/12/04 10:47:23;;;;;;;25.00;14.48;;;;;;;7.40;100.00;99391.91;5033164;28;20328;-55
2022/12/04 10:49:57;;;;;;;25.02;16.15;;;;;;;7.35;100.00;99378.38;5033209;28;20182;-55
2022/12/04 10:52:23;;;;;;;89.00;48.15;;;;;;;7.25;100.00;99370.19;5033741;28;20628;-55
2022/12/04 10:54:54;;;;;;;54.78;30.98;;;;;;;7.18;100.00;99365.34;5033444;28;20181;-55
2022/12/04 10:57:19;;;;;;;35.67;23.25;;;;;;;7.25;100.00;99365.03;5033628;28;20249;-55
2022/12/04 10:59:55;;;;;;;25.83;16.00;;;;;;;7.23;100.00;99351.38;5032979;28;20651;-55
2022/12/04 11:02:25;;;;;;;29.60;16.90;;;;;;;7.34;100.00;99356.94;5033212;28;20224;-55
2022/12/04 11:05:00;;;;;;;46.63;24.83;;;;;;;7.26;100.00;99356.41;5033521;28;20163;-55
2022/12/04 11:07:35;;;;;;;23.58;15.23;;;;;;;7.34;100.00;99350.97;5033079;28;20260;-56
2022/12/04 11:10:19;;;;;;;21.13;15.18;;;;;;;7.36;100.00;99344.00;5033449;28;20666;-55
2022/12/04 11:13:05;;;;;;;27.92;16.55;;;;;;;7.41;100.00;99350.63;5033167;28;20567;-55
2022/12/04 11:15:41;;;;;;;22.10;13.30;;;;;;;7.45;100.00;99334.16;5032680;28;20249;-55
2022/12/04 11:18:09;;;;;;;49.25;25.38;;;;;;;7.49;100.00;99346.03;5032591;28;20255;-56
2022/12/04 11:20:35;;;;;;;24.25;15.55;;;;;;;7.46;100.00;99342.75;5033227;28;20185;-56
2022/12/04 11:23:01;;;;;;;85.65;41.35;;;;;;;7.54;100.00;99341.53;5032354;28;20184;-55
2022/12/04 11:25:34;;;;;;;56.47;29.05;;;;;;;7.57;100.00;99340.56;5031115;28;20175;-55
2022/12/04 11:28:02;;;;;;;53.38;28.25;;;;;;;7.55;100.00;99344.91;5032276;28;20214;-54
2022/12/04 11:30:37;;;;;;;41.78;20.15;;;;;;;7.63;100.00;99340.31;5032566;28;20242;-55
2022/12/04 11:33:06;;;;;;;23.60;12.68;;;;;;;7.49;100.00;99334.88;5032480;28;20177;-56
2022/12/04 11:35:32;;;;;;;15.27;10.18;;;;;;;7.47;100.00;99331.53;5032327;28;20197;-56
2022/12/04 11:38:02;;;;;;;17.15;11.38;;;;;;;7.41;100.00;99327.47;5032285;28;20186;-55
2022/12/04 11:40:29;;;;;;;23.25;14.70;;;;;;;7.34;100.00;99318.31;5032933;28;20167;-55
2022/12/04 11:43:09;;;;;;;60.03;27.33;;;;;;;7.38;100.00;99322.44;5032851;28;20189;-56